Cordell Hull Observed Data For Previous 48 Hours

Caption
Day and Hour Reservoir Elevation (behind dam)* Tailwater Elevation (below dam)* Average Hourly Discharge*
7/14/2018 1 AM CDT 503.72 446.72 0
7/14/2018 2 AM CDT 503.73 446.53 0
7/14/2018 3 AM CDT 503.75 445.25 0
7/14/2018 4 AM CDT 503.80 444.80 0
7/14/2018 5 AM CDT 503.83 444.43 0
7/14/2018 6 AM CDT 503.76 445.76 7,400
7/14/2018 7 AM CDT 503.77 446.27 7,450
7/14/2018 8 AM CDT 503.80 446.40 7,460
7/14/2018 9 AM CDT 503.95 445.15 0
7/14/2018 10 AM CDT 503.96 444.76 0
7/14/2018 11 AM CDT 503.99 444.69 0
7/14/2018 12 PM CDT 504.06 444.56 0
7/14/2018 1 PM CDT 504.12 444.42 0
7/14/2018 2 PM CDT 504.05 445.85 7,380
7/14/2018 3 PM CDT 503.88 448.48 15,480
7/14/2018 4 PM CDT 503.80 451.40 24,570
7/14/2018 5 PM CDT 503.68 452.18 25,050
7/14/2018 6 PM CDT 503.60 452.90 25,530
7/14/2018 7 PM CDT 503.50 450.90 16,320
7/14/2018 8 PM CDT 503.60 449.90 7,960
7/14/2018 9 PM CDT 503.98 447.08 0
7/14/2018 10 PM CDT 503.95 446.15 0
7/14/2018 11 PM CDT 503.99 445.29 0
7/15/2018 12 AM CDT 504.02 444.82 0
7/15/2018 1 AM CDT 504.05 444.55 0
7/15/2018 2 AM CDT 504.10 444.40 0
7/15/2018 3 AM CDT 504.15 444.25 0
7/15/2018 4 AM CDT 504.21 444.11 0
7/15/2018 5 AM CDT 504.16 445.76 7,360
7/15/2018 6 AM CDT 504.12 446.22 7,410
7/15/2018 7 AM CDT 504.29 445.19 0
7/15/2018 8 AM CDT 504.30 444.80 0
7/15/2018 9 AM CDT 504.26 444.66 0
7/15/2018 10 AM CDT 504.34 444.54 0
7/15/2018 11 AM CDT 504.42 444.42 0
7/15/2018 12 PM CDT 504.43 444.23 0
7/15/2018 1 PM CDT 504.28 445.88 7,360
7/15/2018 2 PM CDT 504.37 446.07 7,370
7/15/2018 3 PM CDT 504.25 448.45 15,360
7/15/2018 4 PM CDT 503.94 451.54 24,570
7/15/2018 5 PM CDT 503.94 452.34 24,990
7/15/2018 6 PM CDT 503.90 452.80 25,290
7/15/2018 7 PM CDT 503.92 451.32 16,320
7/15/2018 8 PM CDT 504.03 449.23 7,820
7/15/2018 9 PM CDT 504.13 447.23 0
7/15/2018 10 PM CDT 504.14 446.14 0
7/15/2018 11 PM CDT 504.17 445.37 0
7/16/2018 12 AM CDT 504.19 444.89 0

Elevations are in feet above sea level. Discharges are in cubic feet per second and are reported at the end of the hour.